Time;durP1;ratioP1;P1;durP2;ratioP2;P2;SDS_P1;SDS_P2;PMS_P1;PMS_P2;Temp;Humidity;BMP_temperature;BMP_pressure;BME280_temperature;BME280_humidity;BME280_pressure;Samples;Min_cycle;Max_cycle;Signal;HPM_P1;HPM_P2
2023/06/28 00:00:18;;;;;;;17.00;4.43;;;15.30;99.90;;;;;;5027278;28;20036;-71
2023/06/28 00:02:45;;;;;;;21.17;4.60;;;15.30;99.90;;;;;;5044909;28;20085;-72
2023/06/28 00:05:12;;;;;;;16.52;4.28;;;15.30;99.90;;;;;;5027119;28;20032;-71
2023/06/28 00:07:38;;;;;;;16.08;4.72;;;15.20;99.90;;;;;;5045376;28;20052;-70
2023/06/28 00:10:04;;;;;;;13.25;4.00;;;15.20;99.90;;;;;;5044150;28;20064;-72
2023/06/28 00:12:31;;;;;;;12.80;4.60;;;15.20;99.90;;;;;;5027140;28;20052;-71
2023/06/28 00:14:58;;;;;;;17.45;4.55;;;15.20;99.90;;;;;;5045294;28;20121;-71
2023/06/28 00:17:27;;;;;;;13.50;4.60;;;15.10;99.90;;;;;;5044603;28;20471;-71
2023/06/28 00:20:07;;;;;;;14.00;4.65;;;15.10;99.90;;;;;;5044666;28;20414;-71
2023/06/28 00:22:34;;;;;;;13.23;4.45;;;15.10;99.90;;;;;;5045350;28;20022;-71
2023/06/28 00:25:01;;;;;;;17.05;5.30;;;15.10;99.90;;;;;;5044524;28;20039;-72
2023/06/28 00:27:27;;;;;;;15.48;5.20;;;15.10;99.90;;;;;;5044982;28;20079;-71
2023/06/28 00:29:55;;;;;;;19.45;5.78;;;15.10;99.90;;;;;;5043916;28;20053;-72
2023/06/28 00:32:21;;;;;;;18.33;6.18;;;15.00;99.90;;;;;;5044422;28;20093;-72
2023/06/28 00:34:47;;;;;;;20.13;6.40;;;15.10;99.90;;;;;;5026828;28;20026;-70
2023/06/28 00:37:12;;;;;;;22.98;6.57;;;15.00;99.90;;;;;;5026758;28;20064;-71
2023/06/28 00:39:38;;;;;;;17.98;6.72;;;14.90;99.90;;;;;;5043942;28;20053;-72
2023/06/28 00:42:04;;;;;;;16.27;6.95;;;15.00;99.90;;;;;;5045016;28;20031;-73
2023/06/28 00:44:30;;;;;;;25.23;8.00;;;15.00;99.90;;;;;;5042861;28;20048;-73
2023/06/28 00:46:57;;;;;;;19.90;7.45;;;14.90;99.90;;;;;;5044470;28;20041;-71
2023/06/28 00:49:24;;;;;;;23.30;7.63;;;14.90;99.90;;;;;;5044557;28;20044;-71
2023/06/28 00:51:50;;;;;;;21.67;7.78;;;14.90;99.90;;;;;;5044179;28;20612;-71
2023/06/28 00:54:17;;;;;;;14.77;7.07;;;14.80;99.90;;;;;;5044232;28;20041;-71
2023/06/28 00:56:43;;;;;;;19.10;7.70;;;14.80;99.90;;;;;;5044339;28;20036;-71
2023/06/28 00:59:10;;;;;;;20.70;6.80;;;14.80;99.90;;;;;;5042501;28;20478;-71
2023/06/28 01:01:37;;;;;;;15.60;6.50;;;14.70;99.90;;;;;;5044452;28;20088;-73
2023/06/28 01:04:05;;;;;;;16.02;6.75;;;14.90;99.90;;;;;;5044211;28;20488;-71
2023/06/28 01:06:35;;;;;;;18.00;6.15;;;14.70;99.90;;;;;;5044180;28;20022;-73
2023/06/28 01:09:07;;;;;;;19.33;7.57;;;14.70;99.90;;;;;;5044493;28;20029;-72
2023/06/28 01:11:34;;;;;;;26.73;7.32;;;14.70;99.90;;;;;;5044179;28;20445;-71
2023/06/28 01:14:01;;;;;;;15.65;7.10;;;14.70;99.90;;;;;;5026633;28;20040;-72
2023/06/28 01:16:27;;;;;;;18.80;7.68;;;14.80;99.90;;;;;;5044397;28;20470;-71
2023/06/28 01:18:53;;;;;;;20.25;6.80;;;14.70;99.90;;;;;;5044050;28;20026;-71
2023/06/28 01:21:22;;;;;;;17.20;6.97;;;14.70;99.90;;;;;;5046475;28;20026;-71
2023/06/28 01:23:48;;;;;;;15.90;6.22;;;14.60;99.90;;;;;;5046831;28;20104;-72
2023/06/28 01:26:16;;;;;;;24.88;7.80;;;14.80;99.90;;;;;;5047732;28;20037;-72
2023/06/28 01:28:42;;;;;;;18.05;7.03;;;14.70;99.90;;;;;;5046860;28;20061;-71
2023/06/28 01:31:08;;;;;;;18.95;7.53;;;14.70;99.90;;;;;;5048034;28;20087;-71
2023/06/28 01:33:34;;;;;;;21.65;7.20;;;14.60;99.90;;;;;;5048048;28;20084;-72
2023/06/28 01:36:00;;;;;;;22.20;7.65;;;14.60;99.90;;;;;;5048163;28;20025;-71
2023/06/28 01:38:28;;;;;;;18.70;7.43;;;14.60;99.90;;;;;;5047631;28;20042;-71
2023/06/28 01:40:55;;;;;;;20.17;9.07;;;14.50;99.90;;;;;;5047713;28;20026;-71
2023/06/28 01:43:22;;;;;;;22.95;8.05;;;14.50;99.90;;;;;;5042981;28;20057;-69
2023/06/28 01:45:49;;;;;;;20.20;8.00;;;14.50;99.90;;;;;;5047368;28;20025;-71
2023/06/28 01:48:15;;;;;;;22.67;8.77;;;14.50;99.90;;;;;;5047744;28;20036;-71
2023/06/28 01:50:41;;;;;;;24.48;8.73;;;14.50;99.90;;;;;;5047455;28;20033;-71
2023/06/28 01:53:07;;;;;;;21.85;9.18;;;14.50;99.90;;;;;;5047359;28;20037;-70
2023/06/28 01:55:32;;;;;;;22.23;8.27;;;14.50;99.90;;;;;;5047684;28;20041;-72
2023/06/28 01:57:58;;;;;;;18.40;8.70;;;14.50;99.90;;;;;;5048195;28;20041;-70
2023/06/28 02:00:24;;;;;;;19.77;8.55;;;14.40;99.90;;;;;;5047140;28;20026;-71
2023/06/28 02:02:50;;;;;;;16.52;8.23;;;14.40;99.90;;;;;;5047389;28;20109;-71
2023/06/28 02:05:17;;;;;;;26.63;9.75;;;14.40;99.90;;;;;;5029649;28;20054;-71
2023/06/28 02:07:42;;;;;;;20.20;8.85;;;14.30;99.90;;;;;;5029214;28;20025;-71
2023/06/28 02:10:10;;;;;;;23.42;9.88;;;14.30;99.90;;;;;;5047441;28;20029;-71
2023/06/28 02:12:36;;;;;;;23.52;9.00;;;14.40;99.90;;;;;;5029098;28;20029;-72
2023/06/28 02:15:04;;;;;;;19.42;9.25;;;14.30;99.90;;;;;;5029544;28;20029;-72
2023/06/28 02:17:31;;;;;;;21.45;9.43;;;14.30;99.90;;;;;;5047444;28;20026;-74
2023/06/28 02:19:57;;;;;;;23.13;8.93;;;14.30;99.90;;;;;;5046789;28;20028;-71
2023/06/28 02:22:23;;;;;;;21.77;9.32;;;14.30;99.90;;;;;;5047167;28;20033;-72
2023/06/28 02:24:48;;;;;;;23.42;9.25;;;14.20;99.90;;;;;;5047012;28;20060;-71
2023/06/28 02:27:14;;;;;;;19.27;9.15;;;14.20;99.90;;;;;;5028920;28;20090;-71
2023/06/28 02:29:40;;;;;;;23.70;9.88;;;14.20;99.90;;;;;;5029149;28;20048;-72
2023/06/28 02:32:06;;;;;;;23.58;10.45;;;14.20;99.90;;;;;;5046352;28;20463;-71
2023/06/28 02:34:32;;;;;;;24.17;10.15;;;14.20;99.90;;;;;;5028653;28;20025;-72
2023/06/28 02:36:58;;;;;;;21.15;9.63;;;14.20;99.90;;;;;;5029207;28;20124;-71
2023/06/28 02:39:24;;;;;;;21.60;9.90;;;14.20;99.90;;;;;;5028648;28;20045;-71
2023/06/28 02:41:50;;;;;;;30.65;11.02;;;14.10;99.90;;;;;;5046271;28;20133;-72
2023/06/28 02:44:16;;;;;;;28.83;10.98;;;14.10;99.90;;;;;;5046730;28;20123;-73
2023/06/28 02:46:41;;;;;;;29.73;10.98;;;14.20;99.90;;;;;;5046334;28;20037;-72
2023/06/28 02:49:07;;;;;;;24.85;9.77;;;14.20;99.90;;;;;;5046811;28;20026;-72
2023/06/28 02:51:34;;;;;;;20.95;10.68;;;14.10;99.90;;;;;;5028345;28;20030;-73
2023/06/28 02:54:00;;;;;;;21.63;10.70;;;14.00;99.90;;;;;;5046455;28;20079;-71
2023/06/28 02:56:25;;;;;;;23.23;10.25;;;14.10;99.90;;;;;;5046557;28;20036;-73
2023/06/28 02:58:51;;;;;;;25.50;10.65;;;14.10;99.90;;;;;;5046593;28;20081;-70
2023/06/28 03:01:17;;;;;;;26.52;11.40;;;14.10;99.90;;;;;;5046048;28;20108;-71
2023/06/28 03:03:43;;;;;;;22.10;11.32;;;14.10;99.90;;;;;;5046203;28;20065;-71
2023/06/28 03:06:09;;;;;;;31.20;11.43;;;14.10;99.90;;;;;;5046434;28;20053;-71
2023/06/28 03:08:34;;;;;;;25.33;10.88;;;14.00;99.90;;;;;;5045878;28;20029;-70
2023/06/28 03:11:00;;;;;;;22.05;10.35;;;13.90;99.90;;;;;;5028842;28;20029;-73
2023/06/28 03:13:26;;;;;;;27.88;12.20;;;14.00;99.90;;;;;;5028374;28;20022;-71
2023/06/28 03:15:51;;;;;;;24.58;11.05;;;14.00;99.90;;;;;;5028121;28;20124;-74
2023/06/28 03:18:17;;;;;;;23.40;11.35;;;14.00;99.90;;;;;;5028341;28;20536;-71
2023/06/28 03:20:43;;;;;;;22.92;10.52;;;14.00;99.90;;;;;;5045741;28;20021;-72
2023/06/28 03:23:08;;;;;;;32.15;10.52;;;14.00;99.90;;;;;;5028001;28;20033;-73
2023/06/28 03:25:34;;;;;;;26.15;10.65;;;14.00;99.90;;;;;;5046054;28;20046;-73
2023/06/28 03:28:00;;;;;;;22.35;10.57;;;14.10;99.90;;;;;;5045905;28;20497;-71
2023/06/28 03:30:26;;;;;;;31.25;11.23;;;14.10;99.90;;;;;;5045733;28;20033;-72
2023/06/28 03:32:51;;;;;;;29.35;11.43;;;14.00;99.90;;;;;;5045709;28;20029;-71
2023/06/28 03:35:17;;;;;;;23.85;11.32;;;14.10;99.90;;;;;;5027417;28;20425;-72
2023/06/28 03:37:54;;;;;;;25.23;10.95;;;14.00;99.90;;;;;;5045539;28;20029;-71
2023/06/28 03:40:21;;;;;;;26.80;11.38;;;14.10;99.90;;;;;;5024371;28;20521;-72
2023/06/28 03:42:47;;;;;;;29.08;11.65;;;14.00;99.90;;;;;;5025508;28;20022;-72
2023/06/28 03:45:14;;;;;;;19.77;10.88;;;14.00;99.90;;;;;;5023293;28;20089;-71
2023/06/28 03:47:39;;;;;;;24.40;11.13;;;14.00;99.90;;;;;;5025634;28;20032;-72
2023/06/28 03:50:06;;;;;;;29.33;11.07;;;14.10;99.90;;;;;;5025421;28;20041;-71
2023/06/28 03:52:32;;;;;;;24.85;11.32;;;14.10;99.90;;;;;;5024409;28;20034;-71
2023/06/28 03:54:57;;;;;;;26.48;10.85;;;14.10;99.90;;;;;;5025717;28;20033;-72
2023/06/28 03:57:23;;;;;;;22.83;10.35;;;14.10;99.90;;;;;;5023715;28;20030;-72
2023/06/28 03:59:48;;;;;;;21.90;10.10;;;14.10;99.90;;;;;;5025262;28;20030;-72
2023/06/28 04:02:15;;;;;;;24.73;11.23;;;14.10;99.90;;;;;;5025345;28;20034;-72
2023/06/28 04:04:40;;;;;;;27.88;10.55;;;14.20;99.90;;;;;;5025007;28;20041;-73
2023/06/28 04:07:06;;;;;;;26.50;11.25;;;14.20;99.90;;;;;;5025718;28;20025;-74
2023/06/28 04:09:32;;;;;;;21.05;10.30;;;14.20;99.90;;;;;;5025352;28;20026;-72
2023/06/28 04:11:58;;;;;;;28.77;10.75;;;14.30;99.90;;;;;;5025014;28;20018;-71
2023/06/28 04:14:24;;;;;;;28.52;12.15;;;14.20;99.90;;;;;;5025204;28;20029;-72
2023/06/28 04:16:51;;;;;;;27.15;11.55;;;14.30;99.90;;;;;;5023843;28;20053;-71
2023/06/28 04:19:16;;;;;;;26.55;11.85;;;14.30;99.90;;;;;;5023522;28;20034;-72
2023/06/28 04:21:42;;;;;;;22.65;10.98;;;14.30;99.90;;;;;;5025174;28;20364;-73
2023/06/28 04:24:07;;;;;;;25.90;10.43;;;14.30;99.90;;;;;;5024880;28;20042;-73
2023/06/28 04:26:33;;;;;;;23.80;10.98;;;14.40;99.90;;;;;;5023808;28;20030;-73
2023/06/28 04:28:59;;;;;;;24.85;10.48;;;14.50;99.90;;;;;;5025259;28;20021;-73
2023/06/28 04:31:25;;;;;;;22.88;10.30;;;14.50;99.90;;;;;;5024466;28;20088;-72
2023/06/28 04:33:51;;;;;;;23.38;11.00;;;14.60;99.90;;;;;;5024767;28;20030;-72
2023/06/28 04:36:21;;;;;;;26.30;11.07;;;14.60;99.90;;;;;;5024953;28;20030;-72
2023/06/28 04:38:52;;;;;;;28.23;10.70;;;14.70;99.90;;;;;;5022874;28;20048;-72
2023/06/28 04:41:24;;;;;;;20.13;9.63;;;14.70;99.90;;;;;;5023453;28;20030;-73
2023/06/28 04:43:54;;;;;;;24.70;9.82;;;14.80;99.90;;;;;;5023367;28;20109;-72
2023/06/28 04:46:20;;;;;;;23.35;10.23;;;14.90;99.90;;;;;;5024544;28;20068;-70
2023/06/28 04:48:46;;;;;;;27.00;10.77;;;14.90;99.90;;;;;;5024843;28;20098;-70
2023/06/28 04:51:12;;;;;;;30.00;10.85;;;14.90;99.90;;;;;;5024462;28;20030;-71
2023/06/28 04:53:37;;;;;;;25.08;10.30;;;15.00;99.90;;;;;;5023468;28;20037;-74
2023/06/28 04:56:04;;;;;;;23.90;10.30;;;14.90;99.90;;;;;;5024450;28;20033;-72
2023/06/28 04:58:29;;;;;;;22.50;10.00;;;15.00;99.90;;;;;;5024688;28;20144;-71
2023/06/28 05:00:56;;;;;;;22.15;9.63;;;15.10;99.90;;;;;;5024612;28;20041;-71
2023/06/28 05:03:26;;;;;;;31.98;10.55;;;15.10;99.90;;;;;;5024499;28;20394;-71
2023/06/28 05:05:55;;;;;;;29.27;9.90;;;15.20;99.90;;;;;;5024315;28;20441;-72
2023/06/28 05:08:21;;;;;;;26.05;9.50;;;15.20;99.90;;;;;;5024747;28;20052;-71
2023/06/28 05:10:47;;;;;;;27.17;9.10;;;15.20;99.90;;;;;;5023067;28;20022;-71
2023/06/28 05:13:13;;;;;;;28.27;9.05;;;15.30;99.90;;;;;;5024060;28;20053;-70
2023/06/28 05:15:38;;;;;;;18.33;8.15;;;15.40;99.90;;;;;;5024390;28;20049;-72
2023/06/28 05:18:04;;;;;;;24.08;8.80;;;15.50;99.90;;;;;;5024424;28;20033;-72
2023/06/28 05:20:31;;;;;;;22.33;8.30;;;15.50;99.90;;;;;;5023063;28;20117;-72
2023/06/28 05:23:17;;;;;;;19.40;8.18;;;15.50;99.90;;;;;;5024226;28;20025;-71
2023/06/28 05:25:44;;;;;;;21.38;8.60;;;15.60;99.90;;;;;;5012770;28;20030;-71
2023/06/28 05:28:11;;;;;;;21.63;8.43;;;15.60;99.90;;;;;;5015940;28;20026;-72
2023/06/28 05:30:37;;;;;;;16.67;7.68;;;15.70;99.90;;;;;;5018335;28;20035;-73
2023/06/28 05:33:03;;;;;;;21.92;8.00;;;15.80;99.90;;;;;;5010480;28;20038;-71
2023/06/28 05:35:33;;;;;;;25.90;7.90;;;15.80;99.90;;;;;;5023780;28;20501;-71
2023/06/28 05:38:00;;;;;;;25.33;8.55;;;15.80;99.90;;;;;;5023345;28;20034;-71
2023/06/28 05:40:29;;;;;;;18.48;7.68;;;15.90;99.90;;;;;;5042287;28;20457;-70
2023/06/28 05:42:57;;;;;;;19.58;7.50;;;15.90;99.90;;;;;;5039994;28;20030;-71
2023/06/28 05:45:23;;;;;;;19.95;7.63;;;16.00;99.90;;;;;;5041855;28;20033;-71
2023/06/28 05:47:50;;;;;;;22.13;7.15;;;16.10;99.90;;;;;;5022004;28;20437;-73
2023/06/28 05:50:21;;;;;;;18.63;6.80;;;16.10;99.90;;;;;;5031218;28;20029;-71
2023/06/28 05:52:48;;;;;;;19.48;6.63;;;16.20;99.90;;;;;;5039165;28;20033;-72
2023/06/28 05:55:13;;;;;;;21.67;6.78;;;16.30;99.90;;;;;;5021673;28;20382;-71
2023/06/28 05:57:40;;;;;;;20.08;6.18;;;16.40;99.90;;;;;;5029302;28;20033;-72
2023/06/28 06:00:08;;;;;;;21.92;7.30;;;16.40;99.90;;;;;;5042674;28;20034;-72
2023/06/28 06:02:34;;;;;;;17.77;6.22;;;16.50;99.90;;;;;;5024610;28;20042;-71
2023/06/28 06:05:01;;;;;;;15.57;6.25;;;16.60;99.90;;;;;;5040203;28;20156;-72
2023/06/28 06:07:27;;;;;;;22.70;6.68;;;16.60;99.90;;;;;;5024609;28;20061;-71
2023/06/28 06:09:56;;;;;;;15.70;5.47;;;16.60;99.90;;;;;;5027220;28;20045;-71
2023/06/28 06:12:26;;;;;;;18.98;5.82;;;16.70;99.90;;;;;;5045624;28;20397;-72
2023/06/28 06:14:51;;;;;;;25.48;6.43;;;16.70;99.90;;;;;;5047290;28;20079;-71
2023/06/28 06:17:18;;;;;;;16.77;5.57;;;16.80;99.90;;;;;;5046819;28;20034;-72
2023/06/28 06:19:43;;;;;;;20.38;6.07;;;16.80;99.90;;;;;;5046797;28;20025;-74
2023/06/28 06:22:09;;;;;;;18.05;6.00;;;16.80;99.90;;;;;;5045755;28;20025;-74
2023/06/28 06:24:35;;;;;;;15.65;5.95;;;16.90;99.90;;;;;;5031919;28;20079;-72
2023/06/28 06:27:00;;;;;;;17.20;5.68;;;17.00;99.90;;;;;;5046587;28;20057;-74
2023/06/28 06:29:26;;;;;;;14.27;5.75;;;17.00;99.90;;;;;;5028672;28;20033;-73
2023/06/28 06:31:53;;;;;;;13.77;5.18;;;17.00;99.90;;;;;;5046950;28;20094;-72
2023/06/28 06:34:18;;;;;;;22.92;6.18;;;17.10;99.90;;;;;;5028696;28;20021;-74
2023/06/28 06:36:44;;;;;;;16.02;5.93;;;17.10;99.90;;;;;;5045383;28;20084;-75
2023/06/28 06:39:09;;;;;;;15.43;4.95;;;17.20;99.90;;;;;;5045104;28;20057;-71
2023/06/28 06:41:36;;;;;;;13.07;4.28;;;17.10;99.90;;;;;;5045599;28;20056;-72
2023/06/28 06:44:02;;;;;;;13.65;5.18;;;17.30;99.90;;;;;;5046811;28;20093;-72
2023/06/28 06:46:28;;;;;;;18.05;5.40;;;17.30;99.90;;;;;;5045418;28;20029;-72
2023/06/28 06:48:55;;;;;;;13.15;4.38;;;17.40;99.90;;;;;;5044939;28;20533;-71
2023/06/28 06:51:20;;;;;;;18.58;5.75;;;17.40;99.90;;;;;;5033810;28;20033;-72
2023/06/28 06:53:46;;;;;;;10.73;4.65;;;17.50;99.90;;;;;;5045255;28;20367;-72
2023/06/28 06:56:11;;;;;;;12.65;4.28;;;17.60;99.90;;;;;;5041848;28;20037;-74
2023/06/28 06:58:38;;;;;;;19.67;5.05;;;17.70;99.90;;;;;;5031525;28;20032;-70
2023/06/28 07:01:04;;;;;;;20.08;4.85;;;17.60;99.90;;;;;;5044792;28;20037;-72
2023/06/28 07:03:31;;;;;;;13.27;4.82;;;17.80;99.90;;;;;;5043817;28;20037;-71
2023/06/28 07:05:58;;;;;;;16.63;4.63;;;17.80;99.90;;;;;;5044423;28;20030;-71
2023/06/28 07:08:24;;;;;;;17.58;4.30;;;17.90;99.90;;;;;;5041446;28;20088;-74
2023/06/28 07:10:49;;;;;;;15.88;4.30;;;17.80;99.90;;;;;;5027686;28;20130;-72
2023/06/28 07:13:15;;;;;;;15.77;3.92;;;17.80;99.90;;;;;;5027912;28;20052;-72
2023/06/28 07:15:42;;;;;;;12.65;4.07;;;17.80;99.90;;;;;;5044050;28;20025;-71
2023/06/28 07:18:08;;;;;;;14.57;3.80;;;17.80;99.90;;;;;;5043566;28;20029;-71
2023/06/28 07:20:33;;;;;;;15.65;3.85;;;17.90;99.90;;;;;;5046162;28;20022;-71
2023/06/28 07:22:59;;;;;;;15.10;4.68;;;18.00;99.90;;;;;;5045770;28;20039;-71
2023/06/28 07:25:24;;;;;;;12.07;3.63;;;18.20;99.90;;;;;;5045827;28;20033;-70
2023/06/28 07:27:50;;;;;;;15.45;2.80;;;18.20;99.90;;;;;;5044877;28;20037;-72
2023/06/28 07:30:16;;;;;;;11.23;3.47;;;18.20;99.90;;;;;;5045116;28;20028;-69
2023/06/28 07:32:41;;;;;;;8.20;3.20;;;18.10;99.90;;;;;;5044224;28;20034;-71
2023/06/28 07:35:10;;;;;;;12.50;3.70;;;18.10;99.90;;;;;;5045426;28;20104;-73
2023/06/28 07:37:36;;;;;;;12.20;3.03;;;18.10;99.90;;;;;;5044794;28;20029;-71
2023/06/28 07:40:02;;;;;;;11.60;2.42;;;18.20;99.90;;;;;;5029105;28;20046;-72
2023/06/28 07:42:28;;;;;;;14.27;2.88;;;18.30;99.90;;;;;;5028801;28;20022;-73
2023/06/28 07:44:54;;;;;;;7.93;3.08;;;18.40;99.90;;;;;;5045061;28;20056;-73
2023/06/28 07:47:20;;;;;;;9.10;2.80;;;18.40;99.90;;;;;;5045484;28;20030;-71
2023/06/28 07:49:45;;;;;;;12.68;3.10;;;18.30;99.90;;;;;;5045381;28;20040;-72
2023/06/28 07:52:11;;;;;;;8.82;2.45;;;18.40;99.90;;;;;;5044817;28;20029;-72
2023/06/28 07:54:37;;;;;;;5.88;2.33;;;18.50;99.90;;;;;;5044763;28;20112;-72
2023/06/28 07:57:04;;;;;;;13.98;2.75;;;18.70;99.90;;;;;;5045270;28;20048;-73
2023/06/28 07:59:29;;;;;;;7.78;2.22;;;18.70;99.90;;;;;;5045056;28;20051;-72
2023/06/28 08:01:55;;;;;;;8.57;2.20;;;18.80;99.90;;;;;;5043583;28;20037;-72
2023/06/28 08:04:22;;;;;;;11.27;2.35;;;18.80;99.90;;;;;;5027188;28;20045;-72
2023/06/28 08:06:47;;;;;;;7.13;2.38;;;18.90;99.90;;;;;;5044592;28;20021;-72
2023/06/28 08:09:13;;;;;;;9.75;2.75;;;18.90;99.90;;;;;;5034275;28;20664;-72
2023/06/28 08:11:40;;;;;;;12.63;3.10;;;18.90;99.90;;;;;;5033842;28;20037;-70
2023/06/28 08:14:05;;;;;;;6.28;2.17;;;18.90;99.90;;;;;;5035824;28;20034;-72
2023/06/28 08:16:31;;;;;;;8.43;1.90;;;19.00;99.90;;;;;;5033948;28;20041;-71
2023/06/28 08:18:57;;;;;;;7.40;1.92;;;19.10;99.90;;;;;;5032559;28;20029;-72
2023/06/28 08:21:23;;;;;;;8.40;1.73;;;19.10;99.90;;;;;;5029649;28;20045;-73
2023/06/28 08:23:49;;;;;;;8.82;1.80;;;19.00;99.90;;;;;;5032693;28;20046;-72
2023/06/28 08:26:15;;;;;;;5.57;1.75;;;19.10;99.90;;;;;;5043179;28;20022;-74
2023/06/28 08:28:40;;;;;;;8.10;1.98;;;19.20;99.90;;;;;;5039282;28;20057;-73
2023/06/28 08:31:06;;;;;;;5.20;1.63;;;19.30;99.90;;;;;;5014775;28;20026;-73
2023/06/28 08:33:32;;;;;;;5.55;2.05;;;19.30;99.90;;;;;;5018310;28;20022;-73
2023/06/28 08:35:57;;;;;;;10.70;2.08;;;19.30;99.90;;;;;;5035990;28;20079;-73
2023/06/28 08:38:23;;;;;;;5.80;1.58;;;19.40;99.90;;;;;;5019690;28;20040;-73
2023/06/28 08:40:48;;;;;;;7.18;1.95;;;19.40;99.90;;;;;;5025796;28;20425;-72
2023/06/28 08:43:16;;;;;;;7.75;2.00;;;19.40;99.90;;;;;;5028530;28;20043;-75
2023/06/28 08:45:43;;;;;;;5.70;1.98;;;19.40;99.90;;;;;;5037575;28;20021;-73
2023/06/28 08:48:09;;;;;;;8.00;2.13;;;19.30;99.90;;;;;;5031629;28;20098;-74
2023/06/28 08:50:38;;;;;;;7.10;1.98;;;19.30;99.90;;;;;;5019962;28;20021;-74
2023/06/28 08:53:09;;;;;;;8.10;2.10;;;19.40;99.90;;;;;;5024370;28;20025;-73
2023/06/28 08:55:38;;;;;;;9.27;2.28;;;19.50;99.90;;;;;;5042931;28;20045;-73
2023/06/28 08:58:06;;;;;;;6.10;2.00;;;19.50;99.90;;;;;;5043862;28;20045;-74
2023/06/28 09:00:35;;;;;;;5.50;1.92;;;19.50;99.90;;;;;;5042784;28;20029;-72
2023/06/28 09:03:01;;;;;;;4.60;1.90;;;19.70;99.90;;;;;;5041557;28;20022;-74
2023/06/28 09:05:27;;;;;;;5.20;2.03;;;19.80;99.90;;;;;;5043661;28;20040;-71
2023/06/28 09:07:56;;;;;;;8.02;2.22;;;20.00;99.90;;;;;;5043930;28;20034;-72
2023/06/28 09:10:23;;;;;;;4.40;1.70;;;20.10;99.90;;;;;;5020614;28;20022;-73
2023/06/28 09:13:30;;;;;;;6.13;1.83;;;20.20;99.90;;;;;;5036196;28;20064;-73
2023/06/28 09:15:56;;;;;;;8.43;2.47;;;20.30;99.90;;;;;;5039871;28;20028;-72
2023/06/28 09:18:22;;;;;;;7.05;2.10;;;20.50;99.90;;;;;;5041254;28;20105;-72
2023/06/28 09:20:53;;;;;;;4.72;1.95;;;20.60;99.90;;;;;;5037437;28;20029;-73
2023/06/28 09:23:27;;;;;;;6.88;2.13;;;20.70;99.90;;;;;;5041906;28;20033;-73
2023/06/28 09:25:53;;;;;;;7.85;2.45;;;20.80;99.90;;;;;;5032286;28;20041;-72
2023/06/28 09:28:21;;;;;;;6.60;1.80;;;20.80;99.90;;;;;;5041715;28;20474;-72
2023/06/28 09:30:56;;;;;;;4.80;1.63;;;20.70;99.90;;;;;;5033342;28;20041;-71
2023/06/28 09:33:23;;;;;;;4.15;1.50;;;20.70;99.90;;;;;;5027449;28;20096;-74
2023/06/28 09:35:58;;;;;;;7.53;2.00;;;20.90;99.90;;;;;;5044010;28;20038;-73
2023/06/28 09:38:27;;;;;;;5.55;2.10;;;21.00;99.90;;;;;;5024768;28;20097;-70
2023/06/28 09:41:01;;;;;;;4.88;1.80;;;21.10;99.90;;;;;;5040904;28;20026;-72
2023/06/28 09:43:35;;;;;;;5.78;1.65;;;21.10;99.90;;;;;;5047147;28;20092;-71
2023/06/28 09:46:18;;;;;;;3.65;1.52;;;21.20;99.90;;;;;;5041764;28;20707;-70
2023/06/28 09:48:47;;;;;;;6.00;2.10;;;21.30;99.90;;;;;;5026465;28;20061;-72
2023/06/28 09:51:15;;;;;;;4.95;1.80;;;21.30;99.90;;;;;;5041022;28;20026;-72
2023/06/28 09:53:49;;;;;;;7.57;1.85;;;21.30;99.90;;;;;;5039529;28;20483;-71
2023/06/28 09:56:18;;;;;;;9.68;2.30;;;21.40;99.90;;;;;;5045771;28;20025;-70
2023/06/28 09:58:47;;;;;;;5.18;1.33;;;21.50;99.90;;;;;;5047339;28;20049;-72
2023/06/28 10:01:16;;;;;;;2.78;1.30;;;21.70;99.90;;;;;;5047541;28;20048;-70
2023/06/28 10:03:44;;;;;;;2.97;1.42;;;21.70;99.90;;;;;;5033321;28;20045;-71
2023/06/28 10:06:10;;;;;;;7.88;1.88;;;21.70;99.90;;;;;;5047270;28;20433;-71
2023/06/28 10:08:36;;;;;;;4.57;2.20;;;21.50;99.90;;;;;;5038199;28;20375;-70
2023/06/28 10:11:07;;;;;;;5.45;1.90;;;21.30;99.90;;;;;;5026702;28;20093;-72
2023/06/28 10:13:33;;;;;;;5.88;2.03;;;21.30;99.90;;;;;;5028505;28;20033;-72
2023/06/28 10:16:24;;;;;;;5.28;2.22;;;21.30;99.90;;;;;;5045953;28;20117;-70
2023/06/28 10:18:50;;;;;;;6.43;2.33;;;21.40;99.90;;;;;;5044093;28;20033;-71
2023/06/28 10:21:17;;;;;;;7.22;2.05;;;21.40;99.90;;;;;;5046199;28;20040;-72
2023/06/28 10:23:43;;;;;;;5.05;2.10;;;21.40;99.90;;;;;;5046983;28;20536;-72
2023/06/28 10:26:12;;;;;;;7.20;2.20;;;21.40;99.90;;;;;;5043959;28;20029;-72
2023/06/28 10:28:40;;;;;;;7.78;2.42;;;21.30;99.90;;;;;;5042152;28;20028;-72
2023/06/28 10:31:06;;;;;;;11.20;2.75;;;21.20;99.90;;;;;;5046604;28;20024;-72
2023/06/28 10:33:32;;;;;;;6.20;2.60;;;21.10;99.90;;;;;;5045019;28;20425;-74
2023/06/28 10:36:02;;;;;;;8.98;2.40;;;21.10;99.90;;;;;;5030463;28;20064;-72
2023/06/28 10:38:32;;;;;;;6.03;2.33;;;21.10;99.90;;;;;;5045685;28;20057;-73
2023/06/28 10:40:58;;;;;;;7.13;2.08;;;21.40;99.90;;;;;;5028213;28;20034;-72
2023/06/28 10:43:24;;;;;;;11.20;1.92;;;21.60;99.90;;;;;;5046730;28;20045;-71
2023/06/28 10:45:51;;;;;;;7.50;2.30;;;21.70;99.90;;;;;;5046532;28;20021;-71
2023/06/28 10:48:19;;;;;;;6.32;2.38;;;21.80;99.90;;;;;;5046450;28;20025;-71
2023/06/28 10:50:46;;;;;;;7.05;2.03;;;21.80;99.90;;;;;;5045502;28;20025;-71
2023/06/28 10:53:22;;;;;;;5.50;1.95;;;21.90;99.90;;;;;;5045829;28;20071;-70
2023/06/28 10:56:13;;;;;;;4.05;1.52;;;22.20;99.90;;;;;;5046262;28;20018;-70
2023/06/28 10:58:39;;;;;;;6.15;1.90;;;22.30;99.90;;;;;;5045923;28;20101;-70
2023/06/28 11:01:07;;;;;;;6.18;2.00;;;22.40;99.90;;;;;;5044407;28;20102;-72
2023/06/28 11:03:43;;;;;;;5.55;2.00;;;22.40;99.90;;;;;;5046755;28;20033;-69
2023/06/28 11:06:13;;;;;;;6.60;2.00;;;22.50;99.90;;;;;;5046539;28;20093;-71
2023/06/28 11:08:42;;;;;;;7.97;2.60;;;22.70;99.90;;;;;;5046101;28;20041;-72
2023/06/28 11:11:09;;;;;;;8.07;2.40;;;22.70;99.90;;;;;;5042998;28;20025;-73
2023/06/28 11:13:50;;;;;;;6.32;2.30;;;22.90;99.90;;;;;;5034739;28;20060;-72
2023/06/28 11:16:23;;;;;;;8.18;2.25;;;22.90;99.90;;;;;;5027229;28;20062;-70
2023/06/28 11:18:51;;;;;;;5.90;2.17;;;22.80;99.90;;;;;;5008408;28;20036;-71
2023/06/28 11:21:26;;;;;;;5.75;2.40;;;22.70;99.90;;;;;;5043827;28;20116;-73
2023/06/28 11:23:54;;;;;;;8.50;2.58;;;22.60;99.90;;;;;;5045684;28;20105;-70
2023/06/28 11:26:36;;;;;;;8.20;2.78;;;22.40;99.90;;;;;;5039459;28;20038;-71
2023/06/28 11:29:16;;;;;;;9.35;2.40;;;22.20;99.90;;;;;;5016555;28;20033;-72
2023/06/28 11:31:50;;;;;;;7.50;2.40;;;21.90;99.90;;;;;;5044079;28;20025;-71
2023/06/28 11:34:16;;;;;;;7.45;2.53;;;21.70;99.90;;;;;;5043274;28;20451;-73
2023/06/28 11:36:43;;;;;;;6.50;2.47;;;21.60;99.90;;;;;;5027193;28;20030;-71
2023/06/28 11:39:17;;;;;;;7.65;2.58;;;21.50;99.90;;;;;;5045350;28;20052;-71
2023/06/28 11:41:43;;;;;;;6.68;2.75;;;21.50;99.90;;;;;;5045362;28;20081;-74
2023/06/28 11:44:11;;;;;;;10.20;2.60;;;21.50;99.90;;;;;;5044981;28;20037;-77
2023/06/28 11:46:38;;;;;;;4.53;2.17;;;21.40;99.90;;;;;;5037996;28;20030;-72
2023/06/28 11:49:03;;;;;;;5.30;2.45;;;21.30;99.90;;;;;;5031197;28;20048;-74
2023/06/28 11:51:30;;;;;;;7.03;2.30;;;21.20;99.90;;;;;;5044446;28;20021;-71
2023/06/28 11:53:56;;;;;;;10.23;2.58;;;21.20;99.90;;;;;;5041612;28;20034;-71
2023/06/28 11:56:39;;;;;;;8.45;2.58;;;21.20;99.90;;;;;;5024394;28;20032;-72
2023/06/28 11:59:19;;;;;;;7.95;2.28;;;21.20;99.90;;;;;;5023379;28;20111;-72
2023/06/28 12:01:45;;;;;;;6.22;2.22;;;21.10;99.90;;;;;;5026425;28;20048;-71
2023/06/28 12:04:15;;;;;;;6.88;2.33;;;21.00;99.90;;;;;;5044341;28;20060;-70
2023/06/28 12:06:43;;;;;;;6.20;2.20;;;21.10;99.90;;;;;;5044531;28;20109;-74
2023/06/28 12:09:23;;;;;;;6.07;2.53;;;21.20;99.90;;;;;;5045167;28;20100;-72
2023/06/28 12:12:06;;;;;;;5.57;2.40;;;21.10;99.90;;;;;;5026729;28;20025;-69
2023/06/28 12:14:46;;;;;;;4.63;2.10;;;21.10;99.90;;;;;;5043753;28;20038;-74
2023/06/28 12:17:11;;;;;;;5.68;2.67;;;21.10;99.90;;;;;;5037178;28;20100;-69
2023/06/28 12:19:40;;;;;;;9.15;2.75;;;21.10;99.90;;;;;;5044120;28;20033;-72
2023/06/28 12:22:06;;;;;;;7.35;2.72;;;21.10;99.90;;;;;;5045062;28;20036;-72
2023/06/28 12:24:34;;;;;;;9.13;2.80;;;21.00;99.90;;;;;;5026886;28;20033;-73
2023/06/28 12:27:03;;;;;;;4.80;2.15;;;21.10;99.90;;;;;;5027209;28;20718;-71
2023/06/28 12:29:31;;;;;;;5.30;2.50;;;21.10;99.90;;;;;;5032476;28;20022;-70
2023/06/28 12:32:03;;;;;;;4.50;2.53;;;21.10;99.90;;;;;;5043183;28;20017;-72
2023/06/28 12:34:33;;;;;;;5.82;2.55;;;21.00;99.90;;;;;;5024798;28;20026;-72
2023/06/28 12:37:01;;;;;;;7.25;2.80;;;20.90;99.90;;;;;;5007401;28;20030;-72
2023/06/28 12:39:35;;;;;;;6.32;2.90;;;20.80;99.90;;;;;;5042234;28;20049;-70